Time;durP1;ratioP1;P1;durP2;ratioP2;P2;SDS_P1;SDS_P2;PMS_P1;PMS_P2;Temp;Humidity;BMP_temperature;BMP_pressure;BME280_temperature;BME280_humidity;BME280_pressure;Samples;Min_cycle;Max_cycle;Signal;HPM_P1;HPM_P2
2021/04/12 00:02:22;;;;;;;7.23;4.10;;;;;;;5.81;56.90;101413.41;5048349;28;20057;-71
2021/04/12 00:04:58;;;;;;;7.10;4.57;;;;;;;5.85;56.92;101407.72;5048417;28;20063;-72
2021/04/12 00:07:40;;;;;;;9.87;5.07;;;;;;;5.60;58.03;101358.97;5050770;28;20033;-71
2021/04/12 00:10:30;;;;;;;17.60;5.40;;;;;;;5.62;57.85;101349.69;5043960;28;20036;-71
2021/04/12 00:13:04;;;;;;;14.50;5.63;;;;;;;5.41;58.83;101421.66;5050490;28;20025;-71
2021/04/12 00:15:46;;;;;;;9.23;4.70;;;;;;;4.69;60.02;101407.84;5051049;28;20035;-72
2021/04/12 00:18:23;;;;;;;8.07;4.87;;;;;;;4.26;60.95;101411.34;5050805;28;20060;-73
2021/04/12 00:20:56;;;;;;;9.57;4.83;;;;;;;4.37;59.75;101400.28;5050988;28;20122;-71
2021/04/12 00:23:27;;;;;;;216.97;60.23;;;;;;;4.61;59.47;101413.16;5048329;28;20055;-71
2021/04/12 00:26:18;;;;;;;34.43;11.90;;;;;;;4.80;59.04;101412.91;5032025;28;20514;-71
2021/04/12 00:28:53;;;;;;;10.57;5.13;;;;;;;4.72;59.07;101413.97;4989211;28;20068;-74
2021/04/12 00:31:30;;;;;;;29.77;11.07;;;;;;;4.40;59.43;101351.94;4989183;28;20496;-70
2021/04/12 00:34:15;;;;;;;39.03;14.43;;;;;;;4.61;58.70;101349.22;4989531;28;20034;-70
2021/04/12 00:36:59;;;;;;;23.20;9.70;;;;;;;4.81;58.13;101361.84;4988898;28;20392;-70
2021/04/12 00:39:38;;;;;;;56.57;19.97;;;;;;;4.96;58.58;101394.44;4989298;28;20125;-73
2021/04/12 00:42:30;;;;;;;16.67;7.67;;;;;;;4.54;58.68;101333.41;4989293;28;20042;-73
2021/04/12 00:45:01;;;;;;;10.07;6.13;;;;;;;4.92;57.88;101387.31;4989387;28;20034;-73
2021/04/12 00:47:51;;;;;;;40.40;16.73;;;;;;;4.95;57.54;101387.56;4989297;28;20042;-70
2021/04/12 00:50:31;;;;;;;10.00;5.47;;;;;;;4.79;58.19;101388.09;4989348;28;20038;-77
2021/04/12 00:53:15;;;;;;;;;;;;;;;4.65;58.28;101384.50;5005971;28;20057;-74
2021/04/12 00:55:52;;;;;;;7.67;5.60;;;;;;;4.60;58.33;101385.78;4988636;28;20012;-71
2021/04/12 00:58:46;;;;;;;10.00;5.33;;;;;;;4.65;58.98;101385.38;4989147;28;20031;-72
2021/04/12 01:01:11;;;;;;;10.90;5.40;;;;;;;4.59;58.74;101386.59;5001440;28;20062;-72
2021/04/12 01:03:49;;;;;;;9.10;5.10;;;;;;;4.69;58.50;101379.69;5008320;28;20034;-70
2021/04/12 01:06:33;;;;;;;12.13;5.30;;;;;;;4.75;58.07;101355.34;5031510;28;20807;-71
2021/04/12 01:09:09;;;;;;;8.87;5.23;;;;;;;4.98;57.96;101363.06;5015410;28;20135;-72
2021/04/12 01:11:49;;;;;;;9.13;4.90;;;;;;;5.08;56.97;101361.19;5042431;28;20033;-70
2021/04/12 01:14:23;;;;;;;9.77;4.77;;;;;;;5.18;56.59;101368.78;5047888;28;20445;-72
2021/04/12 01:17:12;;;;;;;7.40;4.90;;;;;;;4.43;58.36;101325.72;5048151;28;20124;-74
2021/04/12 01:20:01;;;;;;;8.73;5.40;;;;;;;4.57;59.13;101371.09;5031153;28;20036;-73
2021/04/12 01:22:35;;;;;;;;;;;;;;;4.56;59.48;101361.69;5048287;28;20033;-74
2021/04/12 01:25:22;;;;;;;7.23;4.83;;;;;;;4.07;60.93;101368.13;5049598;28;19913;-74
2021/04/12 01:28:43;;;;;;;8.07;4.73;;;;;;;4.04;61.24;101367.13;5034573;28;20086;-73
2021/04/12 01:31:35;;;;;;;9.00;4.87;;;;;;;4.08;61.28;101369.94;5051462;28;20091;-73
2021/04/12 01:34:39;;;;;;;8.13;5.13;;;;;;;4.18;60.96;101364.75;5040469;28;20029;-74
2021/04/12 01:37:25;;;;;;;11.47;5.80;;;;;;;4.35;59.85;101361.81;4980290;28;20120;-74
2021/04/12 01:40:11;;;;;;;12.40;6.70;;;;;;;4.31;59.95;101371.69;4992103;28;20039;-74
2021/04/12 01:42:36;;;;;;;15.00;7.27;;;;;;;4.31;60.87;101370.03;4992076;28;20042;-74
2021/04/12 01:45:30;;;;;;;27.13;12.20;;;;;;;3.98;61.01;101295.09;4991783;28;20033;-74
2021/04/12 01:48:07;;;;;;;12.57;6.57;;;;;;;4.24;61.00;101360.09;4992076;28;20480;-74
2021/04/12 01:50:55;;;;;;;8.23;5.20;;;;;;;4.09;61.05;101356.34;4991937;28;20030;-73
2021/04/12 01:53:54;;;;;;;8.70;4.70;;;;;;;4.02;61.00;101353.31;4991490;28;20121;-73
2021/04/12 01:56:28;;;;;;;8.05;3.95;;;;;;;3.22;61.79;101308.75;4991869;28;20038;-74
2021/04/12 01:58:53;;;;;;;8.13;4.30;;;;;;;2.84;62.95;101373.75;4991643;28;20053;-73
2021/04/12 02:01:28;;;;;;;7.83;4.40;;;;;;;2.69;63.65;101373.38;4991273;28;20524;-74
2021/04/12 02:03:56;;;;;;;9.13;4.87;;;;;;;3.03;63.06;101373.59;4991599;28;20400;-74
2021/04/12 02:06:42;;;;;;;6.00;3.80;;;;;;;3.06;61.47;101371.28;4991354;28;20050;-73
2021/04/12 02:09:26;;;;;;;6.77;4.47;;;;;;;3.29;61.73;101368.81;4991302;28;20034;-74
2021/04/12 02:12:00;;;;;;;6.93;4.07;;;;;;;3.37;60.50;101365.25;4991525;28;20023;-73
2021/04/12 02:14:42;;;;;;;7.47;4.37;;;;;;;3.44;60.04;101367.53;5018376;28;20511;-74
2021/04/12 02:17:22;;;;;;;10.13;5.23;;;;;;;3.42;60.87;101360.50;5053025;28;20493;-76
2021/04/12 02:19:57;;;;;;;8.53;4.80;;;;;;;3.50;61.78;101351.78;5052538;28;20021;-71
2021/04/12 02:23:00;;;;;;;7.83;4.50;;;;;;;3.55;62.75;101363.25;5052754;28;20028;-72
2021/04/12 02:25:36;;;;;;;10.47;4.90;;;;;;;3.65;63.01;101353.03;5041587;28;20056;-72
2021/04/12 02:28:23;;;;;;;7.43;4.53;;;;;;;3.68;62.70;101363.47;5052579;28;20025;-72
2021/04/12 02:31:05;;;;;;;7.53;4.63;;;;;;;3.80;62.54;101354.97;5053212;28;20021;-76
2021/04/12 02:33:50;;;;;;;11.43;6.13;;;;;;;3.92;62.26;101357.63;5052327;28;20040;-73
2021/04/12 02:36:37;;;;;;;10.40;5.80;;;;;;;3.96;61.49;101349.41;5051315;28;20453;-72
2021/04/12 02:39:09;;;;;;;9.37;5.83;;;;;;;3.96;61.75;101345.22;5053762;28;20433;-71
2021/04/12 02:42:02;;;;;;;8.70;5.50;;;;;;;3.91;61.63;101341.38;5048062;28;20025;-73
2021/04/12 02:44:27;;;;;;;11.10;5.40;;;;;;;3.89;62.23;101342.94;5052808;28;20111;-72
2021/04/12 02:47:02;;;;;;;43.50;15.70;;;;;;;4.00;62.13;101338.66;5052326;28;20132;-72
2021/04/12 02:49:35;;;;;;;14.93;7.77;;;;;;;4.01;61.29;101341.34;5052591;28;20037;-73
2021/04/12 02:52:24;;;;;;;13.83;5.43;;;;;;;3.95;61.37;101322.97;5052359;28;20074;-73
2021/04/12 02:55:10;;;;;;;16.20;7.87;;;;;;;3.88;61.85;101338.59;5051069;28;20033;-72
2021/04/12 02:57:57;;;;;;;11.27;5.73;;;;;;;3.48;62.97;101348.25;5010020;28;20122;-74
2021/04/12 03:00:41;;;;;;;15.23;8.00;;;;;;;3.25;63.81;101349.81;5009662;28;20041;-72
2021/04/12 03:03:34;;;;;;;14.47;8.80;;;;;;;3.45;63.54;101355.63;5009878;28;20112;-72
2021/04/12 03:06:37;;;;;;;22.43;8.23;;;;;;;3.55;62.68;101360.69;4993458;28;20049;-72
2021/04/12 03:09:24;;;;;;;16.03;7.40;;;;;;;3.61;62.66;101345.00;5009811;28;20045;-72
2021/04/12 03:12:01;;;;;;;11.50;5.47;;;;;;;3.65;62.36;101345.38;5010121;28;20025;-73
2021/04/12 03:14:50;;;;;;;10.97;4.87;;;;;;;3.59;62.25;101339.78;4993305;28;20165;-72
2021/04/12 03:17:43;;;;;;;9.73;5.55;;;;;;;3.21;62.98;101322.28;5009620;28;20041;-75
2021/04/12 03:20:44;;;;;;;16.97;5.30;;;;;;;2.88;63.80;101351.97;5009879;28;20032;-73
2021/04/12 03:23:45;;;;;;;10.93;5.90;;;;;;;2.64;65.04;101345.72;4951373;29;20074;-73
2021/04/12 03:26:40;;;;;;;7.20;5.10;;;;;;;2.63;65.26;101344.84;4951418;29;20454;-73
2021/04/12 03:29:28;;;;;;;11.47;5.67;;;;;;;2.82;64.48;101346.34;4951432;29;20038;-73
2021/04/12 03:32:11;;;;;;;9.30;5.60;;;;;;;2.83;64.26;101343.91;4951189;29;20425;-73
2021/04/12 03:35:02;;;;;;;9.90;5.50;;;;;;;2.71;63.88;101320.84;4968844;28;20047;-73
2021/04/12 03:37:34;;;;;;;8.70;5.47;;;;;;;2.93;63.86;101355.78;5009562;28;20034;-72
2021/04/12 03:40:11;;;;;;;10.93;5.70;;;;;;;3.06;63.27;101342.34;5008913;28;20467;-73
2021/04/12 03:42:43;;;;;;;7.90;5.00;;;;;;;3.08;62.54;101341.69;5009116;28;20091;-73
2021/04/12 03:45:17;;;;;;;9.47;4.77;;;;;;;3.03;63.28;101347.22;5009374;28;20077;-73
2021/04/12 03:48:01;;;;;;;6.70;4.57;;;;;;;3.00;62.73;101341.84;5008709;28;20115;-74
2021/04/12 03:50:54;;;;;;;9.07;5.57;;;;;;;2.92;63.04;101342.09;5009220;28;20042;-73
2021/04/12 03:53:41;;;;;;;9.83;5.37;;;;;;;2.99;62.84;101346.06;4992404;28;20042;-73
2021/04/12 03:56:39;;;;;;;10.53;5.70;;;;;;;3.04;62.52;101346.41;4992939;28;20578;-72
2021/04/12 03:59:16;;;;;;;12.27;8.10;;;;;;;2.95;62.83;101349.13;5035211;28;20430;-74
2021/04/12 04:02:03;;;;;;;9.57;6.23;;;;;;;2.80;63.70;101350.44;5050965;28;20213;-73
2021/04/12 04:04:31;;;;;;;11.67;6.60;;;;;;;2.77;64.35;101360.34;5039461;28;20025;-73
2021/04/12 04:07:06;;;;;;;13.77;6.97;;;;;;;2.16;66.32;101351.94;5050846;28;20025;-73
2021/04/12 04:09:46;;;;;;;12.30;6.60;;;;;;;1.90;67.86;101353.13;5051154;28;20037;-74
2021/04/12 04:12:49;;;;;;;14.63;6.67;;;;;;;2.08;67.94;101348.72;5051113;28;20430;-73
2021/04/12 04:15:29;;;;;;;12.27;7.80;;;;;;;2.09;68.01;101356.50;5039554;28;20117;-74
2021/04/12 04:18:25;;;;;;;10.07;6.50;;;;;;;2.36;66.83;101349.41;5050857;28;20033;-74
2021/04/12 04:21:19;;;;;;;8.83;6.23;;;;;;;2.50;66.18;101353.09;5050389;28;20553;-73
2021/04/12 04:24:33;;;;;;;9.03;6.30;;;;;;;2.61;66.03;101361.66;5050688;28;20036;-74
2021/04/12 04:27:40;;;;;;;11.73;6.17;;;;;;;2.67;65.86;101348.53;5048289;28;20033;-71
2021/04/12 04:30:24;;;;;;;10.97;6.83;;;;;;;2.86;65.50;101359.47;5047259;28;20025;-72
2021/04/12 04:33:20;;;;;;;9.23;6.40;;;;;;;2.92;65.51;101364.19;5031446;28;20228;-72
2021/04/12 04:35:55;;;;;;;12.50;6.50;;;;;;;2.92;65.50;101367.63;5044064;28;20036;-73
2021/04/12 04:38:51;;;;;;;8.93;5.50;;;;;;;2.97;65.61;101365.44;5047971;28;20155;-74
2021/04/12 04:41:34;;;;;;;19.17;13.20;;;;;;;3.02;65.90;101381.13;5048084;28;20071;-72
2021/04/12 04:44:13;;;;;;;8.83;5.87;;;;;;;2.79;66.18;101343.53;5039364;28;20132;-74
2021/04/12 04:47:02;;;;;;;12.20;9.35;;;;;;;2.77;67.33;101361.25;5047929;28;20571;-73
2021/04/12 04:49:50;;;;;;;9.95;7.20;;;;;;;2.80;67.35;101364.06;5047612;28;20060;-74
2021/04/12 04:52:25;;;;;;;10.43;6.60;;;;;;;2.06;68.04;101250.91;5048284;28;20090;-73
2021/04/12 04:55:20;;;;;;;13.00;7.27;;;;;;;2.68;68.12;101363.94;5041173;28;20078;-72
2021/04/12 04:58:01;;;;;;;13.90;7.37;;;;;;;2.69;68.54;101358.09;5047720;28;20048;-72
2021/04/12 05:00:54;;;;;;;8.93;6.27;;;;;;;2.85;68.22;101347.47;5050448;28;20136;-71
2021/04/12 05:03:45;;;;;;;10.80;6.23;;;;;;;2.88;68.88;101344.31;5045093;28;20134;-73
2021/04/12 05:06:47;;;;;;;16.43;7.77;;;;;;;2.77;70.38;101345.06;5053494;28;20436;-73
2021/04/12 05:09:31;;;;;;;10.77;6.63;;;;;;;3.02;69.60;101342.88;5053850;28;20021;-74
2021/04/12 05:12:15;;;;;;;14.90;9.30;;;;;;;3.05;68.39;101287.91;5049473;28;20482;-72
2021/04/12 05:15:17;;;;;;;15.57;9.97;;;;;;;3.54;67.49;101334.28;5049404;28;20037;-72
2021/04/12 05:18:08;;;;;;;11.13;7.80;;;;;;;3.50;67.51;101326.25;5049188;28;20035;-74
2021/04/12 05:20:53;;;;;;;11.00;7.63;;;;;;;3.54;68.36;101338.53;5051290;28;20479;-73
2021/04/12 05:23:43;;;;;;;16.53;11.17;;;;;;;3.43;67.76;101337.66;5052551;28;20029;-73
2021/04/12 05:26:17;;;;;;;10.47;7.00;;;;;;;3.49;68.28;101333.03;5053696;28;20029;-72
2021/04/12 05:28:57;;;;;;;10.80;6.50;;;;;;;3.60;68.90;101338.09;5053779;28;20104;-72
2021/04/12 05:31:49;;;;;;;10.13;6.40;;;;;;;3.76;68.13;101338.53;5053784;28;20059;-71
2021/04/12 05:34:29;;;;;;;12.77;6.57;;;;;;;3.98;67.35;101332.53;5045197;28;20406;-72
2021/04/12 05:37:20;;;;;;;12.77;6.67;;;;;;;4.12;66.34;101321.69;5052635;28;20025;-72
2021/04/12 05:39:48;;;;;;;9.33;6.17;;;;;;;4.26;64.70;101334.66;5052640;28;20036;-72
2021/04/12 05:42:46;;;;;;;9.80;5.47;;;;;;;4.43;63.00;101331.72;5053448;28;20024;-72
2021/04/12 05:45:39;;;;;;;9.57;6.30;;;;;;;4.31;63.79;101334.25;5051044;28;20080;-73
2021/04/12 05:48:33;;;;;;;13.07;7.47;;;;;;;4.40;62.34;101326.38;5044301;28;20091;-72
2021/04/12 05:51:22;;;;;;;9.07;6.70;;;;;;;3.99;64.04;101284.13;5051135;28;20100;-73
2021/04/12 05:53:56;;;;;;;;;;;;;;;4.61;63.58;101331.31;5051460;28;20414;-71
2021/04/12 05:56:39;;;;;;;9.40;6.43;;;;;;;4.66;62.96;101332.53;5051057;28;20338;-73
2021/04/12 05:59:26;;;;;;;11.10;7.50;;;;;;;4.86;64.76;101319.56;5050778;28;20028;-72
2021/04/12 06:02:10;;;;;;;11.27;7.73;;;;;;;5.05;62.95;101304.66;5047559;28;20068;-72
2021/04/12 06:04:42;;;;;;;8.03;6.37;;;;;;;5.04;63.42;101316.56;5050950;28;20033;-74
2021/04/12 06:07:30;;;;;;;10.43;7.20;;;;;;;4.97;63.40;101312.69;5050696;28;20028;-73
2021/04/12 06:10:16;;;;;;;11.10;7.90;;;;;;;5.18;63.43;101310.81;5033737;28;20033;-74
2021/04/12 06:13:12;;;;;;;10.70;6.03;;;;;;;5.45;61.94;101279.38;5050219;28;20526;-72
2021/04/12 06:16:02;;;;;;;11.13;6.57;;;;;;;5.84;61.21;101300.88;5050853;28;20506;-72
2021/04/12 06:19:06;;;;;;;11.13;7.00;;;;;;;6.02;61.20;101300.38;5037723;28;20037;-73
2021/04/12 06:21:55;;;;;;;8.40;5.50;;;;;;;6.22;60.61;101300.09;4987752;28;20039;-73
2021/04/12 06:24:38;;;;;;;8.68;6.28;;;;;;;6.43;60.05;101299.72;4985055;28;20093;-72
2021/04/12 06:27:50;;;;;;;9.18;6.50;;;;;;;6.58;60.91;101311.03;4979664;28;20062;-72
2021/04/12 06:30:26;;;;;;;9.25;6.03;;;;;;;6.82;59.19;101305.75;4952526;29;20046;-70
2021/04/12 06:32:57;;;;;;;11.40;5.90;;;;;;;7.05;59.03;101308.91;4952217;29;20097;-74
2021/04/12 06:35:44;;;;;;;11.02;5.57;;;;;;;7.25;59.01;101305.06;4952386;29;20446;-72
2021/04/12 06:38:28;;;;;;;9.10;5.72;;;;;;;7.53;57.71;101307.69;4952066;29;20216;-73
2021/04/12 06:41:09;;;;;;;7.70;5.43;;;;;;;7.81;57.10;101304.25;4952039;28;20039;-73
2021/04/12 06:43:56;;;;;;;8.90;6.20;;;;;;;7.98;55.83;101307.00;4952121;29;20067;-72
2021/04/12 06:46:55;;;;;;;8.27;5.63;;;;;;;8.22;52.71;101305.91;4952172;29;20051;-71
2021/04/12 06:50:04;;;;;;;18.35;9.73;;;;;;;8.34;52.16;101295.44;4952225;29;20039;-72
2021/04/12 06:52:39;;;;;;;13.48;6.50;;;;;;;8.54;50.58;101298.34;4952211;29;20069;-72
2021/04/12 06:55:19;;;;;;;10.07;6.10;;;;;;;8.70;50.93;101305.28;4952124;29;20104;-72
2021/04/12 06:58:19;;;;;;;24.35;15.23;;;;;;;8.94;50.59;101304.91;4966606;28;20516;-72
2021/04/12 07:01:06;;;;;;;10.15;6.53;;;;;;;9.01;48.63;101287.31;5010195;28;20479;-73
2021/04/12 07:03:52;;;;;;;8.43;6.05;;;;;;;9.01;48.58;101279.59;4991039;28;20041;-73
2021/04/12 07:06:55;;;;;;;11.48;6.13;;;;;;;9.15;50.06;101285.50;5018277;28;20032;-72
2021/04/12 07:09:49;;;;;;;9.13;5.85;;;;;;;9.54;48.52;101283.38;5032509;28;20037;-72
2021/04/12 07:12:57;;;;;;;9.80;5.60;;;;;;;9.58;48.45;101275.78;5032365;28;20041;-72
2021/04/12 07:15:59;;;;;;;9.43;5.72;;;;;;;9.81;50.23;101279.59;5031172;28;20099;-72
2021/04/12 07:18:47;;;;;;;9.07;5.50;;;;;;;9.87;48.65;101280.81;5032380;28;20108;-71
2021/04/12 07:21:15;;;;;;;9.00;5.43;;;;;;;9.89;49.20;101280.88;5031136;28;20036;-71
2021/04/12 07:24:09;;;;;;;8.95;5.32;;;;;;;10.04;48.85;101273.97;5031846;28;20064;-72
2021/04/12 07:26:43;;;;;;;7.13;5.05;;;;;;;10.31;48.22;101273.59;5032417;28;20112;-72
2021/04/12 07:29:36;;;;;;;11.95;5.95;;;;;;;10.49;47.14;101280.53;5031871;28;20028;-77
2021/04/12 07:32:03;;;;;;;9.23;5.45;;;;;;;10.60;47.43;101275.91;5032250;28;20034;-72
2021/04/12 07:34:50;;;;;;;7.88;4.78;;;;;;;10.16;45.60;101275.41;5032251;28;20120;-72
2021/04/12 07:37:43;;;;;;;10.43;5.50;;;;;;;10.43;47.92;101264.72;5030921;28;20036;-72
2021/04/12 07:40:33;;;;;;;8.25;6.20;;;;;;;10.61;46.56;101260.47;5030837;28;20399;-73
2021/04/12 07:43:36;;;;;;;8.48;5.30;;;;;;;10.79;46.42;101252.75;5031788;28;20411;-72
2021/04/12 07:49:00;;;;;;;8.63;5.55;;;;;;;10.71;46.10;101202.41;5032101;28;20392;-73
2021/04/12 07:51:35;;;;;;;8.70;6.25;;;;;;;11.11;47.36;101245.66;5031879;28;20060;-72
2021/04/12 07:54:19;;;;;;;9.10;5.53;;;;;;;11.01;46.52;101233.13;5031739;28;20116;-73
2021/04/12 07:57:11;;;;;;;9.13;5.90;;;;;;;10.97;48.07;101234.66;5032125;28;20072;-72
2021/04/12 07:59:48;;;;;;;13.35;7.80;;;;;;;11.19;47.33;101230.53;5031627;28;20045;-73
2021/04/12 08:02:28;;;;;;;14.45;7.13;;;;;;;11.13;46.85;101219.91;5032016;28;20147;-78
2021/04/12 08:05:31;;;;;;;9.00;6.05;;;;;;;11.31;46.70;101227.59;5031841;28;20061;-73
2021/04/12 08:08:35;;;;;;;9.13;5.45;;;;;;;11.49;46.25;101228.44;5031460;28;20487;-72
2021/04/12 08:11:42;;;;;;;7.30;5.15;;;;;;;11.90;44.23;101220.78;5031395;28;20044;-72
2021/04/12 08:14:45;;;;;;;9.45;5.30;;;;;;;12.03;43.89;101224.81;5030241;28;20037;-73
2021/04/12 08:17:56;;;;;;;8.68;6.20;;;;;;;11.92;44.71;101220.84;5031663;28;20056;-73
2021/04/12 08:21:09;;;;;;;30.70;13.90;;;;;;;12.05;44.78;101210.22;4989930;28;20078;-71
2021/04/12 08:23:55;;;;;;;12.15;6.35;;;;;;;12.26;45.81;101199.91;4989966;28;20512;-73
2021/04/12 08:26:45;;;;;;;9.07;6.03;;;;;;;12.32;45.86;101198.38;4989802;28;20113;-73
2021/04/12 08:29:16;;;;;;;8.52;5.45;;;;;;;12.48;45.04;101200.78;4989999;28;20565;-71
2021/04/12 08:32:00;;;;;;;9.23;5.47;;;;;;;12.51;43.87;101192.25;4989727;28;20077;-73
2021/04/12 08:34:46;;;;;;;9.32;5.60;;;;;;;12.66;42.46;101189.38;4992410;28;20065;-73
2021/04/12 08:37:33;;;;;;;10.02;5.28;;;;;;;12.68;42.74;101190.34;4993889;28;20527;-72
2021/04/12 08:40:36;;;;;;;8.40;5.80;;;;;;;12.91;42.56;101183.47;4993673;28;20041;-73
2021/04/12 08:43:07;;;;;;;8.40;5.13;;;;;;;13.15;42.58;101170.56;4993715;28;20026;-73
2021/04/12 08:45:42;;;;;;;7.75;4.80;;;;;;;13.34;41.10;101164.34;4993779;28;20030;-72
2021/04/12 08:48:28;;;;;;;8.98;5.05;;;;;;;13.48;40.62;101159.69;4993672;28;20058;-72
2021/04/12 08:51:18;;;;;;;8.52;4.82;;;;;;;13.51;39.87;101166.72;4993533;28;20125;-72
2021/04/12 08:53:49;;;;;;;7.68;4.68;;;;;;;13.37;40.49;101124.66;4993428;28;20386;-73
2021/04/12 08:56:23;;;;;;;9.93;5.18;;;;;;;13.65;41.28;101162.91;5000645;28;20064;-73
2021/04/12 08:59:43;;;;;;;6.65;4.78;;;;;;;13.52;39.16;101161.59;5034890;28;20033;-76
2021/04/12 09:02:42;;;;;;;8.95;5.03;;;;;;;13.65;39.88;101156.84;4992876;28;20873;-73
2021/04/12 09:05:44;;;;;;;8.57;4.80;;;;;;;13.51;39.48;101157.22;4994880;28;20065;-72
2021/04/12 09:08:25;;;;;;;8.35;5.75;;;;;;;13.96;41.29;101144.94;4995257;28;20108;-72
2021/04/12 09:11:16;;;;;;;8.30;5.75;;;;;;;14.16;39.63;101136.06;4992668;28;20046;-73
2021/04/12 09:14:12;;;;;;;9.43;5.90;;;;;;;14.26;39.64;101137.25;4992817;28;20034;-71
2021/04/12 09:17:14;;;;;;;9.93;6.10;;;;;;;14.36;39.69;101130.66;4992870;28;20039;-75
2021/04/12 09:20:07;;;;;;;9.30;6.10;;;;;;;14.40;38.81;101110.03;4992370;28;20092;-72
2021/04/12 09:22:57;;;;;;;9.40;5.57;;;;;;;14.69;38.48;101119.56;4992750;28;20046;-75
2021/04/12 09:25:44;;;;;;;8.25;5.53;;;;;;;14.80;39.56;101119.91;4992536;28;20037;-73
2021/04/12 09:28:34;;;;;;;9.38;5.20;;;;;;;14.80;39.35;101102.56;4994374;28;20459;-73
2021/04/12 09:31:18;;;;;;;;;;;;;;;14.94;37.91;101107.31;4993506;28;20041;-73
2021/04/12 09:34:31;;;;;;;7.95;5.75;;;;;;;15.01;37.72;101094.53;4992752;28;20371;-73
2021/04/12 09:37:07;;;;;;;11.68;6.35;;;;;;;15.06;38.14;101093.81;4937785;29;20046;-73
2021/04/12 09:39:35;;;;;;;10.02;6.35;;;;;;;15.08;37.65;101092.09;4954282;29;20383;-73
2021/04/12 09:42:35;;;;;;;76.75;33.00;;;;;;;15.17;37.06;101089.78;4954047;28;20031;-75
2021/04/12 09:45:26;;;;;;;12.43;5.88;;;;;;;15.29;36.39;101084.91;4953001;28;20039;-73
2021/04/12 09:48:00;;;;;;;46.25;22.52;;;;;;;15.25;37.09;101064.84;4969922;28;20038;-75
2021/04/12 09:50:50;;;;;;;8.85;5.82;;;;;;;15.24;38.82;101070.91;4971423;28;20031;-74
2021/04/12 09:53:53;;;;;;;11.38;7.25;;;;;;;15.31;37.27;101058.94;4970801;28;20035;-75
2021/04/12 09:56:30;;;;;;;13.32;7.88;;;;;;;15.60;37.26;101044.09;4971688;28;20564;-75
2021/04/12 09:59:35;;;;;;;11.68;5.97;;;;;;;15.95;38.10;101059.75;4972077;28;20031;-75
2021/04/12 10:02:21;;;;;;;9.25;6.60;;;;;;;16.29;35.45;101046.66;4971505;28;20061;-78
2021/04/12 10:05:10;;;;;;;11.90;5.68;;;;;;;16.34;35.27;101051.09;4970282;28;20649;-76
2021/04/12 10:07:54;;;;;;;7.00;5.45;;;;;;;16.12;35.64;101043.66;4972504;28;20141;-77
2021/04/12 10:10:31;;;;;;;10.63;6.38;;;;;;;16.29;35.91;100994.53;4972899;28;20465;-78
2021/04/12 10:13:15;;;;;;;9.57;6.03;;;;;;;16.52;35.71;101048.88;5009352;28;20037;-76
2021/04/12 10:15:50;;;;;;;8.82;6.05;;;;;;;16.78;36.21;101037.25;5053319;28;20411;-78
2021/04/12 10:18:23;;;;;;;11.98;6.53;;;;;;;16.77;33.99;101034.63;5052534;28;20115;-75
2021/04/12 10:20:52;;;;;;;9.50;6.05;;;;;;;16.83;34.63;101024.31;5053561;28;20032;-77
2021/04/12 10:23:22;;;;;;;9.95;6.32;;;;;;;16.93;34.16;101026.28;5053336;28;20029;-76
2021/04/12 10:25:59;;;;;;;9.63;6.50;;;;;;;17.08;34.12;101023.09;5053290;28;20032;-78
2021/04/12 10:28:28;;;;;;;9.63;6.90;;;;;;;16.95;34.35;101010.69;5049746;28;20491;-78
2021/04/12 10:31:01;;;;;;;;;;;;;;;17.22;35.24;101018.16;5053180;28;20025;-72
2021/04/12 10:33:40;;;;;;;9.00;6.35;;;;;;;17.33;33.13;101009.66;5052481;28;19935;-78
2021/04/12 10:36:30;;;;;;;9.43;6.50;;;;;;;17.28;32.89;101017.38;5051412;28;20092;-75
2021/04/12 10:39:11;;;;;;;11.07;6.25;;;;;;;17.54;31.03;101007.38;4993788;28;20427;-73
2021/04/12 10:41:54;;;;;;;8.25;5.88;;;;;;;17.89;31.04;101003.59;5007878;28;20492;-76
2021/04/12 10:44:40;;;;;;;9.48;6.40;;;;;;;17.99;32.44;100987.25;5006982;28;20050;-76
2021/04/12 10:47:27;;;;;;;9.70;5.82;;;;;;;17.93;32.52;101001.06;5009272;28;20022;-75
2021/04/12 10:50:20;;;;;;;7.88;6.00;;;;;;;18.00;32.00;101006.41;5011466;28;20026;-74
2021/04/12 10:53:15;;;;;;;8.90;5.93;;;;;;;18.23;32.20;100999.78;4993283;28;20041;-75
2021/04/12 10:55:47;;;;;;;8.57;5.53;;;;;;;18.11;32.37;100955.19;5009391;28;20492;-73
2021/04/12 10:58:53;;;;;;;8.20;5.85;;;;;;;18.41;32.82;100991.31;5008538;28;20214;-75
2021/04/12 11:02:09;;;;;;;7.93;5.60;;;;;;;18.37;28.93;100950.31;4950265;29;20059;-77
2021/04/12 11:04:55;;;;;;;8.63;5.20;;;;;;;18.71;30.18;100984.69;4930655;29;20039;-76
2021/04/12 11:07:33;;;;;;;11.48;5.85;;;;;;;18.47;30.72;100933.00;4930265;29;20044;-77
2021/04/12 11:10:20;;;;;;;7.53;5.72;;;;;;;18.86;29.79;100973.53;4929021;29;20040;-77
2021/04/12 11:12:56;;;;;;;8.23;5.30;;;;;;;18.96;29.11;100976.28;4930640;29;20040;-76
2021/04/12 11:15:21;;;;;;;8.98;5.50;;;;;;;19.00;29.99;100958.00;4929010;29;20139;-76
2021/04/12 11:18:07;;;;;;;7.53;5.05;;;;;;;18.50;33.18;100885.09;4932607;29;20107;-75
2021/04/12 11:20:44;;;;;;;7.68;5.75;;;;;;;19.12;30.65;100954.66;4931641;29;20043;-73
2021/04/12 11:23:20;;;;;;;6.70;4.47;;;;;;;18.85;29.81;100948.22;4932552;29;20564;-74
2021/04/12 11:26:00;;;;;;;6.70;4.90;;;;;;;18.65;30.77;100939.31;4932686;29;20111;-74
2021/04/12 11:29:01;;;;;;;8.55;6.13;;;;;;;18.94;30.23;100934.44;4932712;29;20102;-75
2021/04/12 11:31:45;;;;;;;8.27;4.95;;;;;;;18.84;30.26;100945.59;4932562;29;20057;-74
2021/04/12 11:34:44;;;;;;;7.00;5.20;;;;;;;19.08;30.54;100939.78;4931337;29;20036;-75
2021/04/12 11:37:18;;;;;;;7.00;4.78;;;;;;;19.10;29.56;100935.41;4894269;29;20100;-74
2021/04/12 11:39:57;;;;;;;7.57;4.95;;;;;;;19.44;28.06;100930.50;4912258;28;20047;-74
2021/04/12 11:42:31;;;;;;;9.32;4.75;;;;;;;19.62;27.75;100926.25;4951592;29;20130;-74
2021/04/12 11:45:18;;;;;;;8.50;4.30;;;;;;;19.72;28.04;100926.31;4951607;29;20043;-74
2021/04/12 11:48:09;;;;;;;17.00;4.93;;;;;;;19.63;28.04;100920.16;4943566;29;20043;-74
2021/04/12 11:50:37;;;;;;;7.03;4.53;;;;;;;19.76;27.73;100914.09;4932645;29;20028;-74
2021/04/12 11:53:27;;;;;;;7.40;4.20;;;;;;;19.85;27.34;100913.31;4932636;29;20542;-74
2021/04/12 11:56:08;;;;;;;6.13;4.18;;;;;;;19.68;28.64;100915.81;4932663;29;20051;-73
2021/04/12 11:58:44;;;;;;;7.10;4.05;;;;;;;19.68;29.21;100914.06;4932631;29;20054;-74
2021/04/12 12:01:18;;;;;;;7.45;3.60;;;;;;;19.93;25.81;100909.00;4932060;29;20052;-76
2021/04/12 12:04:13;;;;;;;6.03;3.58;;;;;;;20.15;26.83;100907.38;4932549;29;20180;-73
2021/04/12 12:07:06;;;;;;;6.50;3.03;;;;;;;20.50;26.14;100900.50;4932563;29;20040;-75
2021/04/12 12:09:57;;;;;;;4.60;3.20;;;;;;;20.51;25.29;100889.13;4951183;28;20035;-73
2021/04/12 12:12:49;;;;;;;4.75;3.30;;;;;;;20.50;25.39;100893.50;4933964;28;20596;-73
2021/04/12 12:15:20;;;;;;;6.22;3.20;;;;;;;20.76;24.41;100886.59;4990572;28;20061;-73
2021/04/12 12:17:46;;;;;;;4.25;3.08;;;;;;;20.52;25.70;100880.38;4989891;28;20117;-76
2021/04/12 12:20:19;;;;;;;6.30;3.10;;;;;;;20.37;23.99;100878.59;4990377;28;20113;-75
2021/04/12 12:22:53;;;;;;;6.93;2.88;;;;;;;20.46;24.98;100881.28;4990083;28;20101;-72
2021/04/12 12:25:49;;;;;;;4.93;3.20;;;;;;;20.20;24.04;100871.56;4990191;28;20113;-74
2021/04/12 12:28:28;;;;;;;5.13;3.40;;;;;;;19.81;25.42;100849.53;4970578;28;20154;-73
2021/04/12 12:34:36;;;;;;;4.38;2.65;;;;;;;19.24;26.14;100873.63;4932254;29;20560;-74
2021/04/12 12:37:01;;;;;;;5.78;3.08;;;;;;;19.06;25.59;100865.59;4932238;29;20111;-73
2021/04/12 12:39:38;;;;;;;4.28;2.40;;;;;;;18.82;25.15;100866.25;4932495;29;20124;-75
2021/04/12 12:42:08;;;;;;;4.50;3.10;;;;;;;18.73;25.74;100856.59;4931808;29;20118;-75
2021/04/12 12:44:34;;;;;;;;;;;;;;;18.73;27.04;100862.69;4916386;29;20035;-75
2021/04/12 12:47:11;;;;;;;7.10;2.90;;;;;;;18.92;26.67;100857.66;4930332;29;19914;-74
2021/04/12 12:49:45;;;;;;;5.75;3.03;;;;;;;19.17;26.14;100852.63;4931498;29;20495;-74
2021/04/12 12:52:21;;;;;;;4.43;2.53;;;;;;;19.29;26.67;100847.47;4931090;29;20052;-73
2021/04/12 12:54:52;;;;;;;5.75;2.55;;;;;;;19.38;24.87;100846.66;4931385;29;20031;-71
2021/04/12 12:57:36;;;;;;;3.78;2.40;;;;;;;19.69;23.96;100841.63;4931074;29;20557;-75